createdAt,value
2022-10-09T00:00:25.015Z,16.8
2022-10-09T00:01:31.127Z,16.8
2022-10-09T00:02:37.355Z,16.8
2022-10-09T00:03:42.389Z,16.8
2022-10-09T00:04:48.604Z,16.8
2022-10-09T00:05:54.589Z,16.8
2022-10-09T00:07:00.710Z,16.8
2022-10-09T00:08:06.896Z,16.8
2022-10-09T00:09:12.931Z,16.8
2022-10-09T00:10:19.060Z,16.8
2022-10-09T00:11:25.170Z,16.8
2022-10-09T00:12:31.270Z,16.8
2022-10-09T00:13:37.466Z,16.8
2022-10-09T00:14:43.504Z,16.8
2022-10-09T00:15:49.622Z,16.8
2022-10-09T00:16:55.756Z,16.8
2022-10-09T00:18:00.862Z,16.8
2022-10-09T00:19:07.047Z,16.8
2022-10-09T00:20:13.080Z,16.8
2022-10-09T00:21:19.203Z,16.8
2022-10-09T00:22:25.311Z,16.8
2022-10-09T00:23:31.430Z,16.8
2022-10-09T00:24:37.618Z,16.8
2022-10-09T00:25:43.648Z,16.8
2022-10-09T00:26:49.803Z,16.8
2022-10-09T00:27:55.880Z,16.8
2022-10-09T00:30:08.107Z,16.8
2022-10-09T00:31:14.227Z,16.8
2022-10-09T00:32:19.353Z,16.8
2022-10-09T00:33:25.481Z,16.8
2022-10-09T00:34:31.628Z,16.8
2022-10-09T00:35:37.690Z,16.8
2022-10-09T00:36:43.807Z,16.8
2022-10-09T00:37:49.926Z,16.8
2022-10-09T00:38:56.048Z,16.8
2022-10-09T00:40:02.167Z,16.8
2022-10-09T00:41:08.307Z,16.8
2022-10-09T00:42:14.375Z,16.8
2022-10-09T00:43:20.618Z,16.8
2022-10-09T00:44:26.698Z,16.8
2022-10-09T00:45:32.723Z,16.8
2022-10-09T00:46:37.926Z,16.8
2022-10-09T00:47:43.976Z,16.8
2022-10-09T00:48:50.096Z,16.8
2022-10-09T00:49:56.189Z,16.8
2022-10-09T00:51:02.300Z,16.8
2022-10-09T00:52:08.455Z,16.8
2022-10-09T00:53:14.527Z,16.8
2022-10-09T00:54:20.658Z,16.8
2022-10-09T00:55:26.760Z,16.8
2022-10-09T00:56:32.879Z,16.8
2022-10-09T00:57:38.985Z,16.8
2022-10-09T00:58:45.105Z,16.8
2022-10-09T00:59:51.218Z,16.8
2022-10-09T01:00:56.398Z,16.8
2022-10-09T01:03:08.581Z,16.8
2022-10-09T01:04:14.724Z,16.8
2022-10-09T01:05:20.791Z,16.8
2022-10-09T01:06:26.917Z,16.8
2022-10-09T01:07:33.029Z,16.8
2022-10-09T01:08:39.136Z,16.8
2022-10-09T01:09:45.250Z,16.8
2022-10-09T01:10:51.368Z,16.8
2022-10-09T01:11:57.483Z,16.8
2022-10-09T01:13:03.588Z,16.8
2022-10-09T01:14:09.733Z,16.8
2022-10-09T01:15:14.834Z,16.8
2022-10-09T01:16:20.949Z,16.8
2022-10-09T01:17:27.151Z,16.8
2022-10-09T01:18:33.227Z,16.8
2022-10-09T01:19:39.339Z,16.8
2022-10-09T01:20:45.396Z,16.8
2022-10-09T01:21:51.551Z,16.8
2022-10-09T01:22:57.679Z,16.8
2022-10-09T01:24:03.772Z,16.8
2022-10-09T01:25:09.855Z,16.8
2022-10-09T01:26:15.971Z,16.8
2022-10-09T01:27:22.110Z,16.8
2022-10-09T01:28:28.214Z,16.8
2022-10-09T01:29:33.330Z,16.8
2022-10-09T01:30:39.516Z,16.8
2022-10-09T01:31:45.563Z,16.8
2022-10-09T01:32:51.726Z,16.8
2022-10-09T01:33:57.788Z,16.8
2022-10-09T01:35:03.897Z,16.8
2022-10-09T01:36:09.062Z,16.8
2022-10-09T01:37:15.143Z,16.8
2022-10-09T01:38:21.262Z,16.8
2022-10-09T01:39:27.371Z,16.8
2022-10-09T01:40:33.506Z,16.8
2022-10-09T01:41:39.704Z,16.8
2022-10-09T01:42:45.715Z,16.8
2022-10-09T01:43:51.830Z,16.8
2022-10-09T01:44:57.961Z,16.8
2022-10-09T01:46:04.058Z,16.8
2022-10-09T01:47:10.178Z,16.8
2022-10-09T01:48:16.284Z,16.7
2022-10-09T01:49:22.396Z,16.8
2022-10-09T01:50:27.532Z,16.8
2022-10-09T01:51:33.646Z,16.8
2022-10-09T01:52:39.792Z,16.7
2022-10-09T01:53:45.871Z,16.8
2022-10-09T01:54:51.987Z,16.8
2022-10-09T01:55:58.141Z,16.8
2022-10-09T01:57:04.241Z,16.8
2022-10-09T01:58:10.327Z,16.7
2022-10-09T01:59:16.447Z,16.8
2022-10-09T02:00:22.550Z,16.8
2022-10-09T02:01:28.664Z,16.8
2022-10-09T02:02:34.783Z,16.8
2022-10-09T02:03:40.893Z,16.8
2022-10-09T02:04:46.026Z,16.7
2022-10-09T02:05:52.144Z,16.7
2022-10-09T02:06:58.287Z,16.7
2022-10-09T02:08:04.370Z,16.7
2022-10-09T02:09:10.519Z,16.8
2022-10-09T02:10:16.610Z,16.7
2022-10-09T02:11:22.717Z,16.7
2022-10-09T02:12:28.823Z,16.7
2022-10-09T02:13:34.958Z,16.7
2022-10-09T02:14:41.048Z,16.7
2022-10-09T02:15:47.153Z,16.7
2022-10-09T02:16:53.281Z,16.7
2022-10-09T02:17:59.392Z,16.7
2022-10-09T02:19:04.519Z,16.7
2022-10-09T02:20:10.675Z,16.7
2022-10-09T02:21:16.746Z,16.7
2022-10-09T02:22:22.883Z,16.7
2022-10-09T02:23:29.027Z,16.7
2022-10-09T02:24:35.092Z,16.7
2022-10-09T02:25:41.202Z,16.7
2022-10-09T02:26:47.317Z,16.7
2022-10-09T02:27:53.435Z,16.7
2022-10-09T02:28:59.548Z,16.7
2022-10-09T02:31:11.782Z,16.7
2022-10-09T02:32:17.883Z,16.7
2022-10-09T02:33:23.031Z,16.7
2022-10-09T02:34:29.136Z,16.7
2022-10-09T02:35:35.245Z,16.7
2022-10-09T02:36:41.357Z,16.7
2022-10-09T02:37:47.472Z,16.7
2022-10-09T02:38:53.616Z,16.7
2022-10-09T02:39:59.700Z,16.7
2022-10-09T02:41:05.859Z,16.7
2022-10-09T02:42:11.923Z,16.7
2022-10-09T02:43:18.036Z,16.7
2022-10-09T02:44:24.151Z,16.7
2022-10-09T02:45:30.267Z,16.7
2022-10-09T02:46:36.416Z,16.7
2022-10-09T02:47:41.510Z,16.7
2022-10-09T02:48:47.641Z,16.7
2022-10-09T02:49:53.744Z,16.7
2022-10-09T02:50:59.856Z,16.7
2022-10-09T02:52:05.960Z,16.7
2022-10-09T02:53:12.077Z,16.7
2022-10-09T02:54:18.197Z,16.7
2022-10-09T02:55:24.338Z,16.7
2022-10-09T02:56:30.430Z,16.7
2022-10-09T02:57:36.567Z,16.7
2022-10-09T02:58:42.678Z,16.7
2022-10-09T02:59:48.756Z,16.7
2022-10-09T03:00:54.876Z,16.7
2022-10-09T03:02:00.107Z,16.7
2022-10-09T03:03:06.129Z,16.7
2022-10-09T03:04:12.236Z,16.7
2022-10-09T03:05:18.348Z,16.7
2022-10-09T03:06:24.484Z,16.7
2022-10-09T03:07:30.601Z,16.7
2022-10-09T03:08:36.686Z,16.7
2022-10-09T03:09:42.872Z,16.7
2022-10-09T03:10:48.913Z,16.7
2022-10-09T03:11:55.055Z,16.7
2022-10-09T03:13:01.155Z,16.7
2022-10-09T03:14:07.283Z,16.7
2022-10-09T03:15:13.372Z,16.7
2022-10-09T03:16:18.499Z,16.7
2022-10-09T03:17:24.620Z,16.7
2022-10-09T03:18:30.755Z,16.7
2022-10-09T03:19:36.906Z,16.7
2022-10-09T03:20:42.953Z,16.7
2022-10-09T03:21:49.073Z,16.7
2022-10-09T03:22:55.189Z,16.7
2022-10-09T03:24:01.310Z,16.7
2022-10-09T03:25:07.414Z,16.7
2022-10-09T03:26:13.533Z,16.7
2022-10-09T03:27:19.642Z,16.7
2022-10-09T03:28:25.753Z,16.7
2022-10-09T03:29:31.864Z,16.7
2022-10-09T03:30:37.000Z,16.7
2022-10-09T03:31:43.106Z,16.7
2022-10-09T03:32:49.233Z,16.7
2022-10-09T03:33:55.345Z,16.7
2022-10-09T03:35:01.516Z,16.7
2022-10-09T03:36:07.607Z,16.7
2022-10-09T03:37:13.715Z,16.7
2022-10-09T03:38:19.785Z,16.7
2022-10-09T03:39:25.945Z,16.7
2022-10-09T03:40:32.017Z,16.7
2022-10-09T03:41:38.143Z,16.7
2022-10-09T03:42:44.251Z,16.6
2022-10-09T03:43:50.365Z,16.7
2022-10-09T03:44:55.511Z,16.7
2022-10-09T03:46:01.654Z,16.7
2022-10-09T03:47:07.743Z,16.7
2022-10-09T03:48:13.831Z,16.7
2022-10-09T03:49:19.941Z,16.6
2022-10-09T03:50:26.061Z,16.6
2022-10-09T03:51:32.175Z,16.6
2022-10-09T03:52:38.390Z,16.7
2022-10-09T03:53:44.399Z,16.6
2022-10-09T03:54:50.513Z,16.6
2022-10-09T03:55:56.664Z,16.6
2022-10-09T03:57:02.748Z,16.6
2022-10-09T03:58:08.857Z,16.6
2022-10-09T03:59:13.991Z,16.6
2022-10-09T04:00:20.094Z,16.6
2022-10-09T04:02:32.332Z,16.6
2022-10-09T04:03:38.443Z,16.6
2022-10-09T04:04:44.551Z,16.6
2022-10-09T04:05:50.678Z,16.6
2022-10-09T04:06:56.797Z,16.6
2022-10-09T04:08:02.958Z,16.6
2022-10-09T04:09:09.045Z,16.6
2022-10-09T04:10:15.125Z,16.6
2022-10-09T04:11:21.296Z,16.6
2022-10-09T04:12:27.350Z,16.6
2022-10-09T04:13:32.476Z,16.6
2022-10-09T04:14:38.598Z,16.6
2022-10-09T04:15:44.717Z,16.6
2022-10-09T04:16:50.866Z,16.6
2022-10-09T04:17:56.947Z,16.6
2022-10-09T04:20:09.167Z,16.6
2022-10-09T04:21:15.273Z,16.6
2022-10-09T04:22:21.406Z,16.6
2022-10-09T04:23:27.509Z,16.6
2022-10-09T04:24:33.649Z,16.6
2022-10-09T04:25:39.729Z,16.6
2022-10-09T04:26:45.851Z,16.6
2022-10-09T04:27:50.975Z,16.6
2022-10-09T04:28:57.115Z,16.6
2022-10-09T04:30:03.215Z,16.6
2022-10-09T04:31:09.320Z,16.6
2022-10-09T04:32:15.429Z,16.6
2022-10-09T04:33:21.579Z,16.6
2022-10-09T04:34:27.723Z,16.6
2022-10-09T04:35:33.790Z,16.6
2022-10-09T04:36:39.907Z,16.6
2022-10-09T04:37:46.004Z,16.6
2022-10-09T04:38:52.144Z,16.6
2022-10-09T04:39:58.232Z,16.6
2022-10-09T04:41:04.369Z,16.6
2022-10-09T04:42:09.517Z,16.6
2022-10-09T04:43:15.611Z,16.6
2022-10-09T04:44:21.715Z,16.6
2022-10-09T04:45:27.818Z,16.6
2022-10-09T04:46:33.929Z,16.6
2022-10-09T04:47:40.043Z,16.6
2022-10-09T04:48:46.161Z,16.6
2022-10-09T04:49:52.281Z,16.6
2022-10-09T04:50:58.400Z,16.6
2022-10-09T04:52:04.508Z,16.6
2022-10-09T04:53:10.606Z,16.6
2022-10-09T04:54:16.726Z,16.6
2022-10-09T04:55:22.833Z,16.6
2022-10-09T04:56:27.967Z,16.6
2022-10-09T04:57:34.092Z,16.6
2022-10-09T04:58:40.197Z,16.6
2022-10-09T04:59:46.345Z,16.6
2022-10-09T05:00:52.429Z,16.6
2022-10-09T05:01:58.536Z,16.5
2022-10-09T05:03:04.680Z,16.6
2022-10-09T05:04:10.777Z,16.6
2022-10-09T05:05:16.875Z,16.5
2022-10-09T05:06:22.993Z,16.5
2022-10-09T05:07:29.116Z,16.5
2022-10-09T05:08:35.220Z,16.5
2022-10-09T05:09:41.335Z,16.5
2022-10-09T05:10:46.458Z,16.5
2022-10-09T05:11:52.569Z,16.5
2022-10-09T05:12:58.688Z,16.5
2022-10-09T05:14:04.814Z,16.5
2022-10-09T05:15:10.938Z,16.5
2022-10-09T05:16:17.031Z,16.5
2022-10-09T05:17:22.166Z,16.5
2022-10-09T05:18:28.285Z,16.5
2022-10-09T05:19:34.463Z,16.5
2022-10-09T05:20:40.505Z,16.5
2022-10-09T05:21:46.625Z,16.5
2022-10-09T05:22:52.735Z,16.5
2022-10-09T05:23:58.844Z,16.5
2022-10-09T05:25:05.056Z,16.5
2022-10-09T05:26:11.078Z,16.5
2022-10-09T05:27:17.244Z,16.5
2022-10-09T05:28:23.307Z,16.5
2022-10-09T05:29:29.450Z,16.5
2022-10-09T05:30:35.535Z,16.5
2022-10-09T05:31:40.660Z,16.5
2022-10-09T05:32:46.818Z,16.5
2022-10-09T05:33:52.907Z,16.5
2022-10-09T05:34:59.014Z,16.5
2022-10-09T05:36:05.128Z,16.5
2022-10-09T05:37:11.305Z,16.5
2022-10-09T05:38:17.348Z,16.5
2022-10-09T05:39:23.498Z,16.5
2022-10-09T05:40:29.577Z,16.5
2022-10-09T05:41:35.727Z,16.5
2022-10-09T05:42:41.814Z,16.5
2022-10-09T05:43:47.912Z,16.5
2022-10-09T05:44:54.062Z,16.5
2022-10-09T05:45:59.155Z,16.5
2022-10-09T05:47:05.271Z,16.5
2022-10-09T05:48:11.384Z,16.5
2022-10-09T05:49:17.496Z,16.5
2022-10-09T05:50:23.615Z,16.5
2022-10-09T05:51:29.724Z,16.5
2022-10-09T05:52:35.843Z,16.5
2022-10-09T05:53:42.014Z,16.5
2022-10-09T05:54:48.080Z,16.5
2022-10-09T05:55:54.211Z,16.5
2022-10-09T05:57:00.300Z,16.5
2022-10-09T05:58:06.439Z,16.5
2022-10-09T05:59:12.520Z,16.5
2022-10-09T06:00:17.698Z,16.5
2022-10-09T06:01:23.816Z,16.5
2022-10-09T06:02:29.882Z,16.5
2022-10-09T06:03:36.015Z,16.5
2022-10-09T06:04:42.162Z,16.5
2022-10-09T06:05:48.237Z,16.5
2022-10-09T06:06:54.344Z,16.5
2022-10-09T06:08:00.453Z,16.5
2022-10-09T06:09:06.565Z,16.5
2022-10-09T06:10:12.680Z,16.5
2022-10-09T06:11:18.877Z,16.5
2022-10-09T06:12:24.919Z,16.5
2022-10-09T06:13:31.024Z,16.5
2022-10-09T06:14:36.195Z,16.5
2022-10-09T06:15:42.265Z,16.5
2022-10-09T06:16:48.422Z,16.5
2022-10-09T06:17:54.496Z,16.5
2022-10-09T06:19:00.605Z,16.5
2022-10-09T06:20:06.758Z,16.5
2022-10-09T06:21:12.827Z,16.5
2022-10-09T06:22:18.959Z,16.4
2022-10-09T06:23:25.126Z,16.4
2022-10-09T06:24:31.263Z,16.5
2022-10-09T06:25:37.289Z,16.5
2022-10-09T06:26:43.430Z,16.5
2022-10-09T06:27:49.562Z,16.5
2022-10-09T06:28:54.653Z,16.5
2022-10-09T06:30:00.764Z,16.4
2022-10-09T06:31:06.872Z,16.4
2022-10-09T06:32:13.001Z,16.5
2022-10-09T06:33:19.129Z,16.4
2022-10-09T06:34:25.241Z,16.4
2022-10-09T06:35:31.325Z,16.4
2022-10-09T06:36:37.497Z,16.5
2022-10-09T06:37:43.582Z,16.4
2022-10-09T06:38:49.679Z,16.4
2022-10-09T06:39:55.892Z,16.4
2022-10-09T06:41:01.892Z,16.4
2022-10-09T06:42:08.036Z,16.4
2022-10-09T06:43:13.160Z,16.4
2022-10-09T06:44:19.364Z,16.4
2022-10-09T06:45:25.368Z,16.4
2022-10-09T06:46:31.494Z,16.4
2022-10-09T06:47:37.637Z,16.4
2022-10-09T06:48:43.704Z,16.4
2022-10-09T06:49:49.833Z,16.4
2022-10-09T06:50:55.949Z,16.4
2022-10-09T06:52:02.075Z,16.4
2022-10-09T06:53:08.159Z,16.4
2022-10-09T06:54:14.314Z,16.4
2022-10-09T06:55:20.400Z,16.4
2022-10-09T06:56:26.555Z,16.4
2022-10-09T06:57:31.631Z,16.4
2022-10-09T06:58:37.779Z,16.4
2022-10-09T06:59:43.878Z,16.4
2022-10-09T07:00:49.972Z,16.4
2022-10-09T07:01:56.087Z,16.4
2022-10-09T07:03:02.267Z,16.4
2022-10-09T07:04:08.318Z,16.4
2022-10-09T07:05:14.436Z,16.4
2022-10-09T07:06:20.545Z,16.4
2022-10-09T07:07:26.715Z,16.4
2022-10-09T07:08:32.772Z,16.4
2022-10-09T07:09:38.914Z,16.4
2022-10-09T07:10:44.994Z,16.4
2022-10-09T07:11:50.140Z,16.4
2022-10-09T07:12:56.284Z,16.4
2022-10-09T07:15:08.481Z,16.4
2022-10-09T07:16:14.658Z,16.4
2022-10-09T07:17:20.702Z,16.4
2022-10-09T07:18:26.827Z,16.4
2022-10-09T07:19:32.947Z,16.4
2022-10-09T07:20:39.042Z,16.4
2022-10-09T07:21:45.178Z,16.4
2022-10-09T07:22:51.396Z,16.4
2022-10-09T07:23:57.455Z,16.4
2022-10-09T07:25:03.582Z,16.4
2022-10-09T07:26:08.674Z,16.4
2022-10-09T07:27:14.740Z,16.4
2022-10-09T07:28:20.850Z,16.4
2022-10-09T07:29:26.998Z,16.4
2022-10-09T07:30:33.088Z,16.4
2022-10-09T07:31:39.213Z,16.4
2022-10-09T07:32:45.306Z,16.4
2022-10-09T07:33:51.502Z,16.4
2022-10-09T07:34:57.534Z,16.4
2022-10-09T07:36:03.663Z,16.4
2022-10-09T07:37:09.762Z,16.4
2022-10-09T07:38:15.923Z,16.4
2022-10-09T07:39:22.011Z,16.4
2022-10-09T07:40:27.123Z,16.4
2022-10-09T07:41:33.277Z,16.4
2022-10-09T07:42:39.475Z,16.4
2022-10-09T07:43:45.542Z,16.3
2022-10-09T07:44:51.676Z,16.4
2022-10-09T07:45:57.692Z,16.3
2022-10-09T07:47:03.842Z,16.4
2022-10-09T07:48:09.930Z,16.3
2022-10-09T07:49:16.063Z,16.4
2022-10-09T07:50:22.147Z,16.3
2022-10-09T07:51:28.389Z,16.3
2022-10-09T07:52:34.369Z,16.3
2022-10-09T07:53:40.542Z,16.3
2022-10-09T07:54:45.613Z,16.3
2022-10-09T07:55:51.749Z,16.3
2022-10-09T07:56:57.843Z,16.3
2022-10-09T07:58:03.976Z,16.3
2022-10-09T07:59:10.072Z,16.3
2022-10-09T08:00:16.218Z,16.3
2022-10-09T08:01:22.320Z,16.3
2022-10-09T08:02:28.420Z,16.3
2022-10-09T08:03:34.528Z,16.3
2022-10-09T08:04:40.673Z,16.3
2022-10-09T08:05:46.767Z,16.3
2022-10-09T08:06:52.897Z,16.3
2022-10-09T08:07:59.049Z,16.3
2022-10-09T08:09:04.110Z,16.3
2022-10-09T08:10:10.261Z,16.3
2022-10-09T08:11:16.333Z,16.3
2022-10-09T08:12:22.455Z,16.3
2022-10-09T08:13:28.598Z,16.3
2022-10-09T08:14:34.685Z,16.3
2022-10-09T08:15:40.791Z,16.3
2022-10-09T08:16:46.917Z,16.3
2022-10-09T08:17:53.046Z,16.3
2022-10-09T08:18:59.195Z,16.3
2022-10-09T08:20:05.251Z,16.3
2022-10-09T08:21:11.368Z,16.3
2022-10-09T08:22:17.477Z,16.3
2022-10-09T08:23:22.649Z,16.3
2022-10-09T08:24:28.714Z,16.3
2022-10-09T08:25:34.831Z,16.3
2022-10-09T08:26:41.018Z,16.3
2022-10-09T08:27:47.066Z,16.3
2022-10-09T08:28:53.176Z,16.3
2022-10-09T08:29:59.379Z,16.3
2022-10-09T08:31:05.437Z,16.3
2022-10-09T08:32:11.511Z,16.3
2022-10-09T08:33:17.628Z,16.3
2022-10-09T08:34:23.772Z,16.3
2022-10-09T08:35:29.853Z,16.3
2022-10-09T08:36:36.049Z,16.3
2022-10-09T08:37:41.106Z,16.3
2022-10-09T08:38:47.222Z,16.3
2022-10-09T08:39:53.320Z,16.3
2022-10-09T08:40:59.437Z,16.3
2022-10-09T08:42:05.587Z,16.3
2022-10-09T08:43:11.673Z,16.3
2022-10-09T08:44:17.784Z,16.3
2022-10-09T08:45:23.919Z,16.3
2022-10-09T08:46:30.004Z,16.3
2022-10-09T08:47:36.149Z,16.3
2022-10-09T08:48:42.262Z,16.3
2022-10-09T08:49:48.370Z,16.3
2022-10-09T08:50:54.501Z,16.3
2022-10-09T08:51:59.596Z,16.3
2022-10-09T08:53:05.729Z,16.3
2022-10-09T08:54:11.820Z,16.3
2022-10-09T08:55:17.934Z,16.3
2022-10-09T08:56:24.141Z,16.3
2022-10-09T08:57:30.171Z,16.3
2022-10-09T08:58:35.302Z,16.3
2022-10-09T08:59:41.444Z,16.3
2022-10-09T09:00:47.522Z,16.3
2022-10-09T09:01:53.667Z,16.2
2022-10-09T09:02:59.810Z,16.3
2022-10-09T09:04:05.939Z,16.3
2022-10-09T09:05:11.977Z,16.3
2022-10-09T09:06:18.096Z,16.3
2022-10-09T09:07:24.212Z,16.3
2022-10-09T09:08:30.351Z,16.2
2022-10-09T09:09:36.568Z,16.3
2022-10-09T09:10:42.660Z,16.2
2022-10-09T09:11:48.659Z,16.2
2022-10-09T09:12:53.899Z,16.2
2022-10-09T09:13:59.915Z,16.3
2022-10-09T09:15:06.019Z,16.2
2022-10-09T09:16:12.138Z,16.2
2022-10-09T09:17:18.254Z,16.2
2022-10-09T09:18:24.385Z,16.2
2022-10-09T09:19:30.476Z,16.2
2022-10-09T09:20:36.590Z,16.2
2022-10-09T09:21:42.729Z,16.2
2022-10-09T09:22:48.958Z,16.2
2022-10-09T09:23:54.987Z,16.2
2022-10-09T09:25:01.096Z,16.2
2022-10-09T09:26:07.175Z,16.2
2022-10-09T09:27:12.291Z,16.2
2022-10-09T09:28:18.402Z,16.2
2022-10-09T09:29:24.544Z,16.2
2022-10-09T09:30:30.629Z,16.2
2022-10-09T09:31:36.740Z,16.2
2022-10-09T09:32:42.855Z,16.2
2022-10-09T09:33:48.969Z,16.2
2022-10-09T09:34:55.106Z,16.2
2022-10-09T09:36:01.214Z,16.2
2022-10-09T09:37:07.406Z,16.2
2022-10-09T09:38:13.424Z,16.2
2022-10-09T09:39:19.544Z,16.2
2022-10-09T09:40:25.713Z,16.2
2022-10-09T09:41:30.787Z,16.2
2022-10-09T09:42:36.952Z,16.2
2022-10-09T09:43:43.015Z,16.2
2022-10-09T09:44:49.197Z,16.2
2022-10-09T09:45:55.285Z,16.2
2022-10-09T09:47:01.373Z,16.2
2022-10-09T09:48:07.597Z,16.2
2022-10-09T09:49:13.597Z,16.2
2022-10-09T09:50:19.694Z,16.2
2022-10-09T09:51:25.816Z,16.2
2022-10-09T09:52:31.920Z,16.2
2022-10-09T09:53:38.028Z,16.2
2022-10-09T09:54:44.257Z,16.2
2022-10-09T09:55:49.278Z,16.2
2022-10-09T09:56:55.423Z,16.2
2022-10-09T09:58:01.530Z,16.2
2022-10-09T09:59:07.681Z,16.2
2022-10-09T10:00:13.815Z,16.2
2022-10-09T10:01:19.855Z,16.2
2022-10-09T10:02:25.994Z,16.2
2022-10-09T10:03:32.124Z,16.2
2022-10-09T10:04:38.238Z,16.2
2022-10-09T10:05:44.345Z,16.2
2022-10-09T10:06:50.416Z,16.2
2022-10-09T10:07:56.532Z,16.2
2022-10-09T10:09:02.645Z,16.2
2022-10-09T10:10:07.771Z,16.2
2022-10-09T10:11:13.919Z,16.2
2022-10-09T10:12:20.054Z,16.2
2022-10-09T10:13:26.113Z,16.2
2022-10-09T10:14:32.292Z,16.2
2022-10-09T10:15:38.393Z,16.2
2022-10-09T10:16:44.449Z,16.1
2022-10-09T10:17:50.575Z,16.1
2022-10-09T10:18:56.699Z,16.2
2022-10-09T10:20:02.818Z,16.2
2022-10-09T10:21:08.978Z,16.1
2022-10-09T10:22:15.032Z,16.1
2022-10-09T10:23:21.144Z,16.1
2022-10-09T10:24:26.338Z,16.1
2022-10-09T10:25:32.445Z,16.2
2022-10-09T10:26:38.529Z,16.1
2022-10-09T10:27:44.763Z,16.1
2022-10-09T10:28:50.722Z,16.1
2022-10-09T10:29:56.895Z,16.1
2022-10-09T10:31:02.946Z,16.1
2022-10-09T10:32:09.132Z,16.1
2022-10-09T10:33:15.175Z,16.1
2022-10-09T10:34:21.294Z,16.1
2022-10-09T10:35:27.405Z,16.1
2022-10-09T10:36:33.529Z,16.1
2022-10-09T10:37:39.747Z,16.1
2022-10-09T10:38:44.765Z,16.1
2022-10-09T10:39:50.884Z,16.1
2022-10-09T10:40:56.999Z,16.1
2022-10-09T10:42:03.137Z,16.1
2022-10-09T10:43:09.223Z,16.1
2022-10-09T10:44:15.420Z,16.1
2022-10-09T10:45:21.461Z,16.1
2022-10-09T10:46:27.558Z,16.1
2022-10-09T10:47:33.745Z,16.1
2022-10-09T10:48:39.865Z,16.1
2022-10-09T10:49:45.963Z,16.1
2022-10-09T10:50:52.053Z,16.1
2022-10-09T10:51:58.155Z,16.1
2022-10-09T10:54:09.427Z,16.1
2022-10-09T10:55:15.490Z,16.1
2022-10-09T10:56:21.606Z,16.1
2022-10-09T10:57:27.721Z,16.1
2022-10-09T10:58:33.828Z,16.1
2022-10-09T10:59:39.968Z,16.1
2022-10-09T11:00:46.161Z,16.1
2022-10-09T11:01:52.180Z,16.1
2022-10-09T11:02:58.406Z,16.1
2022-10-09T11:04:04.419Z,16.1
2022-10-09T11:05:10.510Z,16.1
2022-10-09T11:06:16.696Z,16.1
2022-10-09T11:07:21.762Z,16.1
2022-10-09T11:08:27.867Z,16.1
2022-10-09T11:09:33.989Z,16.1
2022-10-09T11:10:40.096Z,16.1
2022-10-09T11:11:46.235Z,16.1
2022-10-09T11:12:52.404Z,16.1
2022-10-09T11:13:58.539Z,16.1
2022-10-09T11:15:04.551Z,16.1
2022-10-09T11:16:10.670Z,16.1
2022-10-09T11:17:16.776Z,16.1
2022-10-09T11:18:22.904Z,16.1
2022-10-09T11:19:29.002Z,16.1
2022-10-09T11:20:35.119Z,16.1
2022-10-09T11:21:40.246Z,16.1
2022-10-09T11:22:46.488Z,16.1
2022-10-09T11:23:52.503Z,16.1
2022-10-09T11:24:58.597Z,16.1
2022-10-09T11:26:04.716Z,16.1
2022-10-09T11:27:10.825Z,16.1
2022-10-09T11:28:16.929Z,16.1
2022-10-09T11:29:23.076Z,16.1
2022-10-09T11:30:29.185Z,16.1
2022-10-09T11:31:35.296Z,16.1
2022-10-09T11:32:41.498Z,16.1
2022-10-09T11:33:47.522Z,16.1
2022-10-09T11:34:53.677Z,16.1
2022-10-09T11:35:58.741Z,16.1
2022-10-09T11:37:04.935Z,16.1
2022-10-09T11:38:10.972Z,16.1
2022-10-09T11:39:17.217Z,16.1
2022-10-09T11:40:23.199Z,16.1
2022-10-09T11:41:29.316Z,16.1
2022-10-09T11:43:41.538Z,16.1
2022-10-09T11:44:47.659Z,16.1
2022-10-09T11:45:53.788Z,16.1
2022-10-09T11:46:59.881Z,16.1
2022-10-09T11:48:06.129Z,16.1
2022-10-09T11:49:12.111Z,16.1
2022-10-09T11:50:17.251Z,16.1
2022-10-09T11:51:23.362Z,16.1
2022-10-09T11:52:29.470Z,16.1
2022-10-09T11:53:35.582Z,16.1
2022-10-09T11:54:41.710Z,16.1
2022-10-09T11:55:47.811Z,16.1
2022-10-09T11:56:53.926Z,16.1
2022-10-09T11:58:00.094Z,16.1
2022-10-09T11:59:06.242Z,16
2022-10-09T12:00:12.337Z,16.1
2022-10-09T12:01:18.382Z,16.1
2022-10-09T12:02:24.493Z,16
2022-10-09T12:03:30.619Z,16
2022-10-09T12:04:35.734Z,16.1
2022-10-09T12:06:47.960Z,16.1
2022-10-09T12:07:54.197Z,16
2022-10-09T12:09:00.232Z,16.1
2022-10-09T12:10:06.300Z,16
2022-10-09T12:11:12.457Z,16
2022-10-09T12:12:18.555Z,16.1
2022-10-09T12:13:24.690Z,16
2022-10-09T12:14:30.795Z,16
2022-10-09T12:15:36.872Z,16.1
2022-10-09T12:16:42.986Z,16
2022-10-09T12:17:49.096Z,16
2022-10-09T12:18:54.233Z,16
2022-10-09T12:20:00.343Z,16
2022-10-09T12:21:06.493Z,16
2022-10-09T12:22:12.569Z,16
2022-10-09T12:23:18.769Z,16
2022-10-09T12:24:24.860Z,16
2022-10-09T12:25:30.926Z,16
2022-10-09T12:26:37.066Z,16
2022-10-09T12:27:43.184Z,16
2022-10-09T12:28:49.254Z,16
2022-10-09T12:29:55.362Z,16
2022-10-09T12:31:01.514Z,16
2022-10-09T12:32:07.646Z,16
2022-10-09T12:33:12.760Z,16
2022-10-09T12:34:18.870Z,16
2022-10-09T12:35:24.957Z,16
2022-10-09T12:36:31.076Z,16
2022-10-09T12:37:37.246Z,16
2022-10-09T12:38:43.321Z,16
2022-10-09T12:39:48.428Z,16
2022-10-09T12:40:54.618Z,16
2022-10-09T12:42:00.724Z,16
2022-10-09T12:43:06.771Z,16
2022-10-09T12:44:12.887Z,16
2022-10-09T12:45:19.012Z,16
2022-10-09T12:46:25.109Z,16
2022-10-09T12:47:31.276Z,16
2022-10-09T12:48:37.356Z,16
2022-10-09T12:49:43.455Z,16
2022-10-09T12:50:49.580Z,16
2022-10-09T12:51:55.683Z,16
2022-10-09T12:53:01.919Z,16
2022-10-09T12:54:06.956Z,16
2022-10-09T12:55:13.132Z,16
2022-10-09T12:56:19.158Z,16
2022-10-09T12:57:25.339Z,16
2022-10-09T12:58:31.384Z,16
2022-10-09T12:59:37.527Z,16
2022-10-09T13:00:43.610Z,16
2022-10-09T13:01:49.732Z,16
2022-10-09T13:02:55.837Z,16
2022-10-09T13:04:01.949Z,16
2022-10-09T13:05:08.119Z,16
2022-10-09T13:06:14.171Z,16
2022-10-09T13:07:20.336Z,16
2022-10-09T13:08:25.421Z,16
2022-10-09T13:09:31.534Z,16
2022-10-09T13:10:37.642Z,16
2022-10-09T13:11:43.760Z,16
2022-10-09T13:12:50.005Z,16
2022-10-09T13:13:56.098Z,16
2022-10-09T13:15:02.110Z,16
2022-10-09T13:16:08.251Z,16
2022-10-09T13:17:14.330Z,16
2022-10-09T13:18:20.521Z,16
2022-10-09T13:19:26.572Z,16
2022-10-09T13:20:32.729Z,16
2022-10-09T13:21:38.828Z,16
2022-10-09T13:22:44.040Z,16
2022-10-09T13:23:50.051Z,16
2022-10-09T13:24:56.231Z,16
2022-10-09T13:26:02.267Z,16
2022-10-09T13:27:08.481Z,16
2022-10-09T13:28:14.485Z,16
2022-10-09T13:29:20.598Z,16
2022-10-09T13:30:26.746Z,16
2022-10-09T13:31:32.826Z,16
2022-10-09T13:32:39.018Z,16
2022-10-09T13:33:45.057Z,16
2022-10-09T13:34:51.190Z,16
2022-10-09T13:35:57.280Z,16
2022-10-09T13:37:02.419Z,16
2022-10-09T13:38:08.663Z,16
2022-10-09T13:39:14.646Z,16
2022-10-09T13:40:20.764Z,16
2022-10-09T13:41:26.897Z,16
2022-10-09T13:42:33.012Z,16
2022-10-09T13:43:39.094Z,16
2022-10-09T13:44:45.249Z,16
2022-10-09T13:45:51.321Z,16
2022-10-09T13:46:57.501Z,16
2022-10-09T13:48:03.721Z,16
2022-10-09T13:49:09.678Z,16
2022-10-09T13:50:15.771Z,16
2022-10-09T13:51:20.975Z,16
2022-10-09T13:52:27.062Z,16
2022-10-09T13:53:33.337Z,16
2022-10-09T13:54:39.303Z,16
2022-10-09T13:55:45.398Z,16
2022-10-09T13:56:51.469Z,16
2022-10-09T13:57:57.601Z,16
2022-10-09T13:59:03.705Z,16
2022-10-09T14:00:09.826Z,16
2022-10-09T14:01:15.958Z,16
2022-10-09T14:02:22.156Z,16
2022-10-09T14:03:28.283Z,16
2022-10-09T14:04:34.287Z,16
2022-10-09T14:05:39.448Z,15.9
2022-10-09T14:06:45.548Z,16
2022-10-09T14:07:51.630Z,15.9
2022-10-09T14:08:57.738Z,16
2022-10-09T14:10:03.852Z,16
2022-10-09T14:11:09.965Z,15.9
2022-10-09T14:12:16.084Z,16
2022-10-09T14:13:22.193Z,16
2022-10-09T14:14:28.307Z,16
2022-10-09T14:15:34.439Z,16
2022-10-09T14:16:40.546Z,15.9
2022-10-09T14:17:46.657Z,16
2022-10-09T14:18:52.767Z,16
2022-10-09T14:19:57.892Z,16
2022-10-09T14:21:04.009Z,15.9
2022-10-09T14:22:10.125Z,16
2022-10-09T14:23:16.243Z,15.9
2022-10-09T14:24:22.353Z,16
2022-10-09T14:25:28.466Z,15.9
2022-10-09T14:26:34.581Z,15.9
2022-10-09T14:27:40.690Z,15.9
2022-10-09T14:28:46.805Z,15.9
2022-10-09T14:29:52.914Z,16
2022-10-09T14:30:59.034Z,15.9
2022-10-09T14:32:05.144Z,16
2022-10-09T14:33:11.266Z,15.9
2022-10-09T14:34:16.395Z,15.9
2022-10-09T14:35:22.504Z,15.9
2022-10-09T14:36:28.609Z,16
2022-10-09T14:37:34.746Z,15.9
2022-10-09T14:39:46.954Z,16
2022-10-09T14:40:53.075Z,16
2022-10-09T14:41:59.182Z,16
2022-10-09T14:43:05.299Z,15.9
2022-10-09T14:44:11.410Z,16
2022-10-09T14:45:17.529Z,15.9
2022-10-09T14:46:23.643Z,16
2022-10-09T14:47:29.761Z,15.9
2022-10-09T14:48:34.880Z,16
2022-10-09T14:49:41.002Z,16
2022-10-09T14:50:47.113Z,16
2022-10-09T14:51:53.235Z,16
2022-10-09T14:52:59.340Z,16
2022-10-09T14:54:05.449Z,15.9
2022-10-09T14:55:11.566Z,16
2022-10-09T14:56:17.685Z,16
2022-10-09T14:57:23.828Z,15.9
2022-10-09T14:58:29.911Z,16
2022-10-09T14:59:36.023Z,15.9